Time;durP1;ratioP1;P1;durP2;ratioP2;P2;SDS_P1;SDS_P2;PMS_P1;PMS_P2;Temp;Humidity;BMP_temperature;BMP_pressure;BME280_temperature;BME280_humidity;BME280_pressure;Samples;Min_cycle;Max_cycle;Signal;HPM_P1;HPM_P2
2023/07/19 00:00:37;;;;;;;;;;;;;;;;;;5026679;28;1673;-61
2023/07/19 00:03:02;;;;;;;;;;;;;;;;;;5028274;28;5103;-60
2023/07/19 00:05:28;;;;;;;;;;;;;;;;;;5028130;28;5067;-61
2023/07/19 00:07:53;;;;;;;;;;;;;;;;;;5027905;28;5101;-60
2023/07/19 00:10:18;;;;;;;;;;;;;;;;;;5028237;28;4521;-60
2023/07/19 00:12:43;;;;;;;;;;;;;;;;;;5028321;28;4485;-61
2023/07/19 00:15:09;;;;;;;;;;;;;;;;;;5028300;28;1313;-61
2023/07/19 00:17:34;;;;;;;;;;;;;;;;;;5028338;28;4857;-61
2023/07/19 00:19:59;;;;;;;;;;;;;;;;;;5026410;28;5059;-62
2023/07/19 00:22:24;;;;;;;;;;;;;;;;;;5026753;28;5014;-64
2023/07/19 00:24:50;;;;;;;;;;;;;;;;;;5028027;28;4966;-61
2023/07/19 00:27:15;;;;;;;;;;;;;;;;;;5028974;28;1906;-61
2023/07/19 00:29:40;;;;;;;;;;;;;;;;;;5024535;28;4644;-61
2023/07/19 00:32:06;;;;;;;;;;;;;;;;;;5027340;28;4479;-63
2023/07/19 00:34:31;;;;;;;;;;;;;;;;;;5028321;28;5171;-61
2023/07/19 00:36:56;;;;;;;;;;;;;;;;;;5027093;28;5191;-60
2023/07/19 00:39:21;;;;;;;;;;;;;;;;;;5025833;28;1449;-61
2023/07/19 00:41:47;;;;;;;;;;;;;;;;;;5027736;28;4454;-61
2023/07/19 00:44:12;;;;;;;;;;;;;;;;;;5009589;28;4981;-61
2023/07/19 00:46:37;;;;;;;;;;;;;;;;;;5016507;28;4933;-60
2023/07/19 00:49:02;;;;;;;;;;;;;;;;;;5025844;28;5065;-61
2023/07/19 00:51:28;;;;;;;;;;;;;;;;;;5025622;28;1089;-61
2023/07/19 00:53:53;;;;;;;;;;;;;;;;;;5026108;28;4929;-61
2023/07/19 00:56:18;;;;;;;;;;;;;;;;;;5024408;28;4509;-61
2023/07/19 00:58:43;;;;;;;;;;;;;;;;;;5024196;28;5184;-61
2023/07/19 01:01:09;;;;;;;;;;;;;;;;;;5025732;28;4983;-62
2023/07/19 01:03:34;;;;;;;;;;;;;;;;;;5027847;28;4952;-60
2023/07/19 01:29:08;;;;;;;;;;;;;;;;;;5089510;27;5296;-64
2023/07/19 01:31:33;;;;;;;;;;;;;;;;;;5085931;28;4558;-66
2023/07/19 01:33:58;;;;;;;;;;;;;;;;;;5080048;28;5080;-66
2023/07/19 01:36:25;;;;;;;;;;;;;;;;;;5083439;28;4870;-63
2023/07/19 01:38:51;;;;;;;;;;;;;;;;;;5085864;28;4661;-63
2023/07/19 01:41:16;;;;;;;;;;;;;;;;;;5085187;28;5211;-66
2023/07/19 01:43:41;;;;;;;;;;;;;;;;;;5081519;28;4523;-61
2023/07/19 01:46:06;;;;;;;;;;;;;;;;;;5087272;28;5081;-65
2023/07/19 01:48:32;;;;;;;;;;;;;;;;;;5084571;28;4623;-66
2023/07/19 01:50:57;;;;;;;;;;;;;;;;;;5084409;28;4498;-64
2023/07/19 01:53:23;;;;;;;;;;;;;;;;;;5085683;28;3676;-64
2023/07/19 01:55:48;;;;;;;;;;;;;;;;;;5086715;28;4956;-63
2023/07/19 01:58:13;;;;;;;;;;;;;;;;;;5083205;28;5927;-60
2023/07/19 02:00:38;;;;;;;;;;;;;;;;;;5084924;28;5131;-61
2023/07/19 02:03:04;;;;;;;;;;;;;;;;;;5085692;28;4468;-64
2023/07/19 02:05:29;;;;;;;;;;;;;;;;;;5082762;28;1206;-64
2023/07/19 02:07:55;;;;;;;;;;;;;;;;;;5066508;28;5086;-63
2023/07/19 02:10:20;;;;;;;;;;;;;;;;;;5084470;28;5154;-64
2023/07/19 02:12:45;;;;;;;;;;;;;;;;;;5082081;28;4895;-62
2023/07/19 02:15:10;;;;;;;;;;;;;;;;;;5086563;28;5000;-63
2023/07/19 02:17:36;;;;;;;;;;;;;;;;;;5081747;28;3732;-63
2023/07/19 02:20:01;;;;;;;;;;;;;;;;;;5060509;28;4493;-64
2023/07/19 02:22:26;;;;;;;;;;;;;;;;;;5076320;28;4676;-64
2023/07/19 02:24:52;;;;;;;;;;;;;;;;;;5077691;28;4509;-64
2023/07/19 02:27:17;;;;;;;;;;;;;;;;;;5081935;28;5050;-65
2023/07/19 02:29:42;;;;;;;;;;;;;;;;;;5071033;28;1253;-63
2023/07/19 02:32:07;;;;;;;;;;;;;;;;;;5071431;28;6234;-64
2023/07/19 02:34:33;;;;;;;;;;;;;;;;;;5069894;28;4456;-64
2023/07/19 02:36:58;;;;;;;;;;;;;;;;;;5054054;28;5148;-64
2023/07/19 02:39:26;;;;;;;;;;;;;;;;;;5072208;28;5037;-65
2023/07/19 02:41:52;;;;;;;;;;;;;;;;;;5071351;28;5098;-65
2023/07/19 02:44:17;;;;;;;;;;;;;;;;;;5071636;28;3668;-65
2023/07/19 02:46:42;;;;;;;;;;;;;;;;;;5070397;28;5120;-64
2023/07/19 02:49:07;;;;;;;;;;;;;;;;;;5071701;28;4603;-65
2023/07/19 02:51:33;;;;;;;;;;;;;;;;;;5071310;28;4860;-65
2023/07/19 02:53:58;;;;;;;;;;;;;;;;;;5071942;28;5176;-63
2023/07/19 02:56:23;;;;;;;;;;;;;;;;;;5069163;28;3735;-64
2023/07/19 02:58:48;;;;;;;;;;;;;;;;;;5066582;28;4968;-64
2023/07/19 03:01:14;;;;;;;;;;;;;;;;;;5070178;28;4989;-63
2023/07/19 03:03:41;;;;;;;;;;;;;;;;;;5069693;28;4916;-63
2023/07/19 03:06:06;;;;;;;;;;;;;;;;;;5071847;28;4960;-64
2023/07/19 03:08:31;;;;;;;;;;;;;;;;;;5071675;28;2644;-64
2023/07/19 03:10:57;;;;;;;;;;;;;;;;;;5071146;28;5007;-62
2023/07/19 03:13:22;;;;;;;;;;;;;;;;;;5071783;28;5197;-63
2023/07/19 03:15:48;;;;;;;;;;;;;;;;;;5071426;28;5341;-65
2023/07/19 03:18:13;;;;;;;;;;;;;;;;;;5070065;28;5382;-63
2023/07/19 03:20:38;;;;;;;;;;;;;;;;;;5072482;28;3647;-60
2023/07/19 03:23:04;;;;;;;;;;;;;;;;;;5068698;28;4927;-63
2023/07/19 03:25:29;;;;;;;;;;;;;;;;;;5069749;28;5089;-64
2023/07/19 03:27:54;;;;;;;;;;;;;;;;;;5069443;28;4921;-63
2023/07/19 03:30:19;;;;;;;;;;;;;;;;;;5071625;28;5053;-63
2023/07/19 03:32:46;;;;;;;;;;;;;;;;;;5064276;28;4941;-63
2023/07/19 03:35:11;;;;;;;;;;;;;;;;;;5071460;28;4951;-64
2023/07/19 03:37:36;;;;;;;;;;;;;;;;;;5070753;28;5013;-64
2023/07/19 03:40:02;;;;;;;;;;;;;;;;;;5074189;28;5203;-60
2023/07/19 03:42:28;;;;;;;;;;;;;;;;;;5064723;28;4950;-65
2023/07/19 03:44:53;;;;;;;;;;;;;;;;;;5067286;28;4902;-64
2023/07/19 03:47:18;;;;;;;;;;;;;;;;;;5070233;28;2668;-64
2023/07/19 03:49:43;;;;;;;;;;;;;;;;;;5070877;28;5115;-64
2023/07/19 03:52:09;;;;;;;;;;;;;;;;;;5069722;28;5147;-63
2023/07/19 03:54:34;;;;;;;;;;;;;;;;;;5066208;28;4648;-62
2023/07/19 03:57:00;;;;;;;;;;;;;;;;;;5067290;28;5075;-61
2023/07/19 03:59:26;;;;;;;;;;;;;;;;;;5070250;28;1176;-63
2023/07/19 04:01:51;;;;;;;;;;;;;;;;;;5066609;28;5005;-64
2023/07/19 04:04:16;;;;;;;;;;;;;;;;;;5064590;28;5211;-63
2023/07/19 04:06:42;;;;;;;;;;;;;;;;;;5069927;28;5075;-61
2023/07/19 04:09:07;;;;;;;;;;;;;;;;;;5070894;28;4633;-65
2023/07/19 04:11:33;;;;;;;;;;;;;;;;;;5067755;28;3639;-63
2023/07/19 04:13:59;;;;;;;;;;;;;;;;;;5065318;28;4990;-63
2023/07/19 04:16:24;;;;;;;;;;;;;;;;;;5067948;28;4846;-60
2023/07/19 04:18:49;;;;;;;;;;;;;;;;;;5065109;28;4939;-63
2023/07/19 04:21:14;;;;;;;;;;;;;;;;;;5065535;28;5585;-64
2023/07/19 04:23:39;;;;;;;;;;;;;;;;;;5068470;28;3797;-60
2023/07/19 04:26:05;;;;;;;;;;;;;;;;;;5060706;28;5074;-65
2023/07/19 04:28:30;;;;;;;;;;;;;;;;;;5061794;28;5115;-64
2023/07/19 04:30:56;;;;;;;;;;;;;;;;;;5048007;28;4594;-63
2023/07/19 04:33:21;;;;;;;;;;;;;;;;;;5070269;28;5108;-59
2023/07/19 04:35:47;;;;;;;;;;;;;;;;;;5064371;28;3695;-62
2023/07/19 04:38:12;;;;;;;;;;;;;;;;;;5068567;28;4419;-67
2023/07/19 04:40:37;;;;;;;;;;;;;;;;;;5061975;28;4849;-62
2023/07/19 04:43:03;;;;;;;;;;;;;;;;;;5068606;28;4831;-65
2023/07/19 04:45:30;;;;;;;;;;;;;;;;;;5066596;28;4514;-64
2023/07/19 04:47:55;;;;;;;;;;;;;;;;;;5069041;28;5702;-62
2023/07/19 04:50:23;;;;;;;;;;;;;;;;;;5069378;28;3261;-64
2023/07/19 04:52:48;;;;;;;;;;;;;;;;;;5066962;28;4992;-63
2023/07/19 04:55:14;;;;;;;;;;;;;;;;;;5067525;28;5187;-60
2023/07/19 04:57:39;;;;;;;;;;;;;;;;;;5068744;28;4693;-61
2023/07/19 05:00:05;;;;;;;;;;;;;;;;;;5068128;28;5144;-63
2023/07/19 05:02:30;;;;;;;;;;;;;;;;;;5069809;28;3982;-65
2023/07/19 05:04:55;;;;;;;;;;;;;;;;;;5067445;28;4858;-63
2023/07/19 05:07:21;;;;;;;;;;;;;;;;;;5069512;28;4421;-63
2023/07/19 05:09:46;;;;;;;;;;;;;;;;;;5063391;28;5264;-63
2023/07/19 05:12:11;;;;;;;;;;;;;;;;;;5056612;28;5100;-65
2023/07/19 05:14:37;;;;;;;;;;;;;;;;;;5066920;28;3823;-63
2023/07/19 05:17:02;;;;;;;;;;;;;;;;;;5062729;28;4973;-58
2023/07/19 05:19:28;;;;;;;;;;;;;;;;;;5057811;28;4826;-58
2023/07/19 05:21:53;;;;;;;;;;;;;;;;;;5056591;28;5136;-58
2023/07/19 05:24:19;;;;;;;;;;;;;;;;;;5060007;28;5153;-58
2023/07/19 05:26:44;;;;;;;;;;;;;;;;;;5061720;28;3205;-57
2023/07/19 05:29:09;;;;;;;;;;;;;;;;;;5065277;28;5072;-58
2023/07/19 05:31:35;;;;;;;;;;;;;;;;;;5065214;28;4866;-58
2023/07/19 05:34:00;;;;;;;;;;;;;;;;;;5063593;28;5243;-59
2023/07/19 05:36:26;;;;;;;;;;;;;;;;;;5065176;28;4636;-59
2023/07/19 05:38:51;;;;;;;;;;;;;;;;;;5066378;28;4879;-58
2023/07/19 05:41:16;;;;;;;;;;;;;;;;;;5067442;28;1212;-59
2023/07/19 05:43:41;;;;;;;;;;;;;;;;;;5065410;28;4979;-59
2023/07/19 05:46:07;;;;;;;;;;;;;;;;;;5066455;28;5736;-58
2023/07/19 05:48:33;;;;;;;;;;;;;;;;;;5061866;28;4479;-59
2023/07/19 05:50:58;;;;;;;;;;;;;;;;;;5067194;28;5180;-59
2023/07/19 05:53:23;;;;;;;;;;;;;;;;;;5068122;28;1144;-59
2023/07/19 05:55:49;;;;;;;;;;;;;;;;;;5066698;28;4956;-59
2023/07/19 05:58:14;;;;;;;;;;;;;;;;;;5060800;28;5055;-59
2023/07/19 06:00:40;;;;;;;;;;;;;;;;;;5062052;28;4949;-59
2023/07/19 06:03:05;;;;;;;;;;;;;;;;;;5066633;28;4511;-59
2023/07/19 06:05:30;;;;;;;;;;;;;;;;;;5070509;28;1151;-58
2023/07/19 06:07:56;;;;;;;;;;;;;;;;;;5069776;28;5099;-58
2023/07/19 06:10:21;;;;;;;;;;;;;;;;;;5069948;28;5069;-58
2023/07/19 06:12:47;;;;;;;;;;;;;;;;;;5068398;28;5111;-58
2023/07/19 06:15:12;;;;;;;;;;;;;;;;;;5070728;28;4552;-58
2023/07/19 06:17:37;;;;;;;;;;;;;;;;;;5068465;28;2045;-58
2023/07/19 06:20:04;;;;;;;;;;;;;;;;;;5070271;28;4919;-59
2023/07/19 06:22:29;;;;;;;;;;;;;;;;;;5067936;28;5087;-58
2023/07/19 06:24:54;;;;;;;;;;;;;;;;;;5062974;28;4518;-58
2023/07/19 06:27:21;;;;;;;;;;;;;;;;;;5069668;28;4992;-58
2023/07/19 06:29:46;;;;;;;;;;;;;;;;;;5070270;28;1196;-59
2023/07/19 06:32:11;;;;;;;;;;;;;;;;;;5069896;28;5112;-58
2023/07/19 06:34:37;;;;;;;;;;;;;;;;;;5068378;28;4816;-59
2023/07/19 06:37:02;;;;;;;;;;;;;;;;;;5069796;28;4449;-58
2023/07/19 06:39:28;;;;;;;;;;;;;;;;;;5069870;28;5351;-59
2023/07/19 06:41:54;;;;;;;;;;;;;;;;;;5070210;28;4972;-59
2023/07/19 06:44:19;;;;;;;;;;;;;;;;;;5068709;28;1140;-58
2023/07/19 06:46:44;;;;;;;;;;;;;;;;;;5067637;28;4834;-59
2023/07/19 06:49:10;;;;;;;;;;;;;;;;;;5065051;28;4986;-59
2023/07/19 06:51:35;;;;;;;;;;;;;;;;;;5069227;28;5085;-59
2023/07/19 06:54:00;;;;;;;;;;;;;;;;;;5066855;28;5521;-59
2023/07/19 06:56:25;;;;;;;;;;;;;;;;;;5069769;28;1060;-59
2023/07/19 06:58:51;;;;;;;;;;;;;;;;;;5069744;28;5032;-59
2023/07/19 07:01:16;;;;;;;;;;;;;;;;;;5067782;28;5077;-58
2023/07/19 07:03:41;;;;;;;;;;;;;;;;;;5069603;28;5182;-59
2023/07/19 07:06:06;;;;;;;;;;;;;;;;;;5071004;28;4899;-59
2023/07/19 07:08:32;;;;;;;;;;;;;;;;;;5065669;28;1286;-59
2023/07/19 07:10:58;;;;;;;;;;;;;;;;;;5067891;28;5788;-59
2023/07/19 07:13:24;;;;;;;;;;;;;;;;;;5069222;28;4957;-59
2023/07/19 07:15:50;;;;;;;;;;;;;;;;;;5069182;28;4953;-59
2023/07/19 07:18:15;;;;;;;;;;;;;;;;;;5065770;28;5054;-59
2023/07/19 07:20:40;;;;;;;;;;;;;;;;;;5067287;28;1206;-59
2023/07/19 07:23:06;;;;;;;;;;;;;;;;;;5068894;28;5159;-59
2023/07/19 07:25:32;;;;;;;;;;;;;;;;;;5060600;28;4592;-60
2023/07/19 07:27:59;;;;;;;;;;;;;;;;;;5063150;28;5025;-60
2023/07/19 07:30:24;;;;;;;;;;;;;;;;;;5068901;28;4610;-59
2023/07/19 07:32:49;;;;;;;;;;;;;;;;;;5065368;28;4929;-59
2023/07/19 07:35:15;;;;;;;;;;;;;;;;;;5068096;28;1309;-59
2023/07/19 07:37:40;;;;;;;;;;;;;;;;;;5069153;28;4697;-60
2023/07/19 07:40:06;;;;;;;;;;;;;;;;;;5068259;28;4867;-59
2023/07/19 07:42:31;;;;;;;;;;;;;;;;;;5068752;28;4464;-58
2023/07/19 07:44:56;;;;;;;;;;;;;;;;;;5050338;28;4441;-60
2023/07/19 07:47:22;;;;;;;;;;;;;;;;;;5064890;28;1554;-59
2023/07/19 07:49:47;;;;;;;;;;;;;;;;;;5068060;28;4973;-59
2023/07/19 07:52:15;;;;;;;;;;;;;;;;;;5068311;28;4440;-62
2023/07/19 07:54:40;;;;;;;;;;;;;;;;;;5067850;28;4950;-58
2023/07/19 07:57:06;;;;;;;;;;;;;;;;;;5067492;28;5008;-59
2023/07/19 07:59:31;;;;;;;;;;;;;;;;;;5069005;28;1122;-60
2023/07/19 08:01:56;;;;;;;;;;;;;;;;;;5067558;28;5059;-60
2023/07/19 08:04:21;;;;;;;;;;;;;;;;;;5068143;28;5017;-59
2023/07/19 08:06:47;;;;;;;;;;;;;;;;;;5068522;28;5226;-59
2023/07/19 08:09:12;;;;;;;;;;;;;;;;;;5066153;28;5582;-60
2023/07/19 08:11:37;;;;;;;;;;;;;;;;;;5049365;28;1267;-59
2023/07/19 08:14:03;;;;;;;;;;;;;;;;;;5068314;28;4965;-60
2023/07/19 08:16:28;;;;;;;;;;;;;;;;;;5067193;28;5029;-60
2023/07/19 08:18:53;;;;;;;;;;;;;;;;;;5061548;28;4904;-60
2023/07/19 08:21:19;;;;;;;;;;;;;;;;;;5068029;28;5004;-59
2023/07/19 08:23:45;;;;;;;;;;;;;;;;;;5066858;28;1122;-60
2023/07/19 08:26:10;;;;;;;;;;;;;;;;;;5064056;28;4908;-60
2023/07/19 08:28:35;;;;;;;;;;;;;;;;;;5065510;28;4992;-59
2023/07/19 08:31:00;;;;;;;;;;;;;;;;;;5066485;28;4774;-59
2023/07/19 08:33:28;;;;;;;;;;;;;;;;;;5064410;28;5195;-59
2023/07/19 08:35:53;;;;;;;;;;;;;;;;;;5062787;28;5123;-59
2023/07/19 08:38:18;;;;;;;;;;;;;;;;;;5066846;28;3423;-59
2023/07/19 08:41:10;;;;;;;;;;;;;;;;;;5064191;28;5365;-56
2023/07/19 08:43:35;;;;;;;;;;;;;;;;;;5057686;28;5187;-58
2023/07/19 08:46:01;;;;;;;;;;;;;;;;;;5061130;28;4983;-60
2023/07/19 08:48:26;;;;;;;;;;;;;;;;;;5063341;28;4444;-61
2023/07/19 08:50:53;;;;;;;;;;;;;;;;;;5067386;28;5177;-61
2023/07/19 08:53:19;;;;;;;;;;;;;;;;;;5067577;28;1163;-59
2023/07/19 08:55:44;;;;;;;;;;;;;;;;;;5062811;28;4979;-58
2023/07/19 08:58:09;;;;;;;;;;;;;;;;;;5068201;28;5097;-58
2023/07/19 09:00:34;;;;;;;;;;;;;;;;;;5061407;28;5201;-58
2023/07/19 09:03:00;;;;;;;;;;;;;;;;;;5062453;28;5567;-54
2023/07/19 09:05:26;;;;;;;;;;;;;;;;;;5066275;28;3453;-58
2023/07/19 09:07:52;;;;;;;;;;;;;;;;;;5066294;28;4580;-59
2023/07/19 09:10:18;;;;;;;;;;;;;;;;;;5066877;28;4537;-59
2023/07/19 09:12:43;;;;;;;;;;;;;;;;;;5064711;28;5020;-57
2023/07/19 09:15:09;;;;;;;;;;;;;;;;;;5066870;28;5107;-59
2023/07/19 09:17:35;;;;;;;;;;;;;;;;;;5063551;28;1987;-58
2023/07/19 09:20:01;;;;;;;;;;;;;;;;;;5067904;28;5002;-58
2023/07/19 09:22:27;;;;;;;;;;;;;;;;;;5064019;28;4495;-58
2023/07/19 09:24:57;;;;;;;;;;;;;;;;;;5064236;28;4840;-58
2023/07/19 09:27:25;;;;;;;;;;;;;;;;;;5059209;28;4492;-58
2023/07/19 09:29:50;;;;;;;;;;;;;;;;;;5064962;28;4621;-60
2023/07/19 09:32:15;;;;;;;;;;;;;;;;;;5063638;28;5071;-57
2023/07/19 09:34:41;;;;;;;;;;;;;;;;;;5064755;28;5046;-57
2023/07/19 09:37:06;;;;;;;;;;;;;;;;;;5047792;28;4995;-56
2023/07/19 09:39:33;;;;;;;;;;;;;;;;;;5067791;28;4947;-57
2023/07/19 09:41:58;;;;;;;;;;;;;;;;;;5069293;28;4858;-58
2023/07/19 09:44:23;;;;;;;;;;;;;;;;;;5066837;28;1155;-59
2023/07/19 09:46:49;;;;;;;;;;;;;;;;;;5069113;28;5353;-58
2023/07/19 09:49:14;;;;;;;;;;;;;;;;;;5067625;28;5247;-60
2023/07/19 09:51:41;;;;;;;;;;;;;;;;;;5070167;28;4628;-59
2023/07/19 09:54:07;;;;;;;;;;;;;;;;;;5069928;28;4441;-60
2023/07/19 09:56:32;;;;;;;;;;;;;;;;;;5066551;28;1435;-60
2023/07/19 09:58:57;;;;;;;;;;;;;;;;;;5069834;28;4997;-59
2023/07/19 10:01:23;;;;;;;;;;;;;;;;;;5069944;28;4620;-59
2023/07/19 10:03:48;;;;;;;;;;;;;;;;;;5068214;28;5032;-61
2023/07/19 10:06:14;;;;;;;;;;;;;;;;;;5070020;28;4838;-59
2023/07/19 10:08:40;;;;;;;;;;;;;;;;;;5066305;28;1143;-58
2023/07/19 10:11:05;;;;;;;;;;;;;;;;;;5068912;28;4886;-60
2023/07/19 10:13:31;;;;;;;;;;;;;;;;;;5069858;28;4954;-59
2023/07/19 10:15:56;;;;;;;;;;;;;;;;;;5070946;28;5010;-57
2023/07/19 10:18:21;;;;;;;;;;;;;;;;;;5064729;28;4493;-59
2023/07/19 10:20:58;;;;;;;;;;;;;;;;;;5071833;28;995;-59
2023/07/19 10:23:23;;;;;;;;;;;;;;;;;;5069224;28;4936;-58
2023/07/19 10:25:49;;;;;;;;;;;;;;;;;;5066545;28;5525;-58
2023/07/19 10:28:15;;;;;;;;;;;;;;;;;;5063834;28;5094;-58
2023/07/19 10:30:46;;;;;;;;;;;;;;;;;;5068624;28;5073;-58
2023/07/19 10:33:12;;;;;;;;;;;;;;;;;;5065482;28;5050;-58
2023/07/19 10:35:37;;;;;;;;;;;;;;;;;;5070669;28;1116;-58
2023/07/19 10:38:02;;;;;;;;;;;;;;;;;;5066383;28;5248;-57
2023/07/19 10:40:28;;;;;;;;;;;;;;;;;;5069344;28;4502;-57
2023/07/19 10:42:53;;;;;;;;;;;;;;;;;;5068691;28;4926;-57
2023/07/19 10:45:18;;;;;;;;;;;;;;;;;;5069864;28;5258;-57
2023/07/19 10:47:43;;;;;;;;;;;;;;;;;;5061108;28;1558;-57
2023/07/19 10:50:09;;;;;;;;;;;;;;;;;;5068956;28;5046;-56
2023/07/19 10:52:34;;;;;;;;;;;;;;;;;;5066273;28;4911;-56
2023/07/19 10:55:00;;;;;;;;;;;;;;;;;;5064278;28;5741;-57
2023/07/19 10:57:27;;;;;;;;;;;;;;;;;;5068869;28;5102;-63
2023/07/19 10:59:52;;;;;;;;;;;;;;;;;;5068977;28;5256;-60
2023/07/19 11:02:18;;;;;;;;;;;;;;;;;;5072332;28;1185;-64
2023/07/19 11:04:45;;;;;;;;;;;;;;;;;;5066489;28;4393;-63
2023/07/19 11:07:10;;;;;;;;;;;;;;;;;;5067618;28;5035;-62
2023/07/19 11:09:35;;;;;;;;;;;;;;;;;;5064143;28;5486;-62
2023/07/19 11:12:00;;;;;;;;;;;;;;;;;;5068905;28;4992;-59
2023/07/19 11:14:32;;;;;;;;;;;;;;;;;;5067064;28;1289;-57
2023/07/19 11:16:58;;;;;;;;;;;;;;;;;;5065545;28;4988;-56
2023/07/19 11:19:33;;;;;;;;;;;;;;;;;;5064377;28;4933;-58
2023/07/19 11:21:58;;;;;;;;;;;;;;;;;;5068353;28;5037;-57
2023/07/19 11:24:32;;;;;;;;;;;;;;;;;;5067040;28;5056;-55
2023/07/19 11:26:58;;;;;;;;;;;;;;;;;;5067493;28;4885;-59
2023/07/19 11:29:29;;;;;;;;;;;;;;;;;;5065985;28;1170;-58
2023/07/19 11:31:54;;;;;;;;;;;;;;;;;;5065918;28;5120;-58
2023/07/19 11:34:19;;;;;;;;;;;;;;;;;;5062890;28;5017;-58
2023/07/19 11:36:45;;;;;;;;;;;;;;;;;;5072345;28;4967;-60
2023/07/19 11:39:14;;;;;;;;;;;;;;;;;;5068074;28;5102;-58
2023/07/19 11:41:39;;;;;;;;;;;;;;;;;;5066291;28;1160;-58
2023/07/19 11:44:04;;;;;;;;;;;;;;;;;;5063348;28;5012;-59
2023/07/19 11:46:30;;;;;;;;;;;;;;;;;;5070674;28;5045;-60
2023/07/19 11:48:55;;;;;;;;;;;;;;;;;;5062189;28;4876;-58
2023/07/19 11:51:20;;;;;;;;;;;;;;;;;;5063573;28;5044;-58
2023/07/19 11:53:45;;;;;;;;;;;;;;;;;;5067915;28;1165;-59
2023/07/19 11:56:11;;;;;;;;;;;;;;;;;;5066264;28;4958;-59
2023/07/19 11:58:36;;;;;;;;;;;;;;;;;;5065491;28;5111;-58
2023/07/19 12:01:01;;;;;;;;;;;;;;;;;;5067010;28;5071;-58
2023/07/19 12:03:27;;;;;;;;;;;;;;;;;;5066398;28;5228;-56
2023/07/19 12:05:52;;;;;;;;;;;;;;;;;;5072553;28;5059;-58
2023/07/19 12:08:17;;;;;;;;;;;;;;;;;;5065397;28;1206;-58
2023/07/19 12:10:43;;;;;;;;;;;;;;;;;;5067578;28;4614;-57
2023/07/19 12:13:08;;;;;;;;;;;;;;;;;;5069240;28;5653;-60
2023/07/19 12:15:33;;;;;;;;;;;;;;;;;;5066381;28;4961;-58
2023/07/19 12:17:58;;;;;;;;;;;;;;;;;;5066227;28;5079;-56
2023/07/19 12:20:24;;;;;;;;;;;;;;;;;;5067926;28;1243;-55
2023/07/19 12:22:49;;;;;;;;;;;;;;;;;;5072346;28;5141;-52
2023/07/19 12:25:14;;;;;;;;;;;;;;;;;;5063448;28;4597;-54
2023/07/19 12:27:41;;;;;;;;;;;;;;;;;;5058957;28;4444;-52
2023/07/19 12:30:06;;;;;;;;;;;;;;;;;;5066477;28;4441;-51
2023/07/19 12:32:32;;;;;;;;;;;;;;;;;;5062220;28;4926;-50
2023/07/19 12:34:57;;;;;;;;;;;;;;;;;;5062538;28;5158;-58
2023/07/19 12:37:23;;;;;;;;;;;;;;;;;;5067279;28;4954;-58
2023/07/19 12:39:48;;;;;;;;;;;;;;;;;;5061132;28;4646;-58
2023/07/19 12:42:13;;;;;;;;;;;;;;;;;;5060809;28;5052;-57
2023/07/19 12:44:39;;;;;;;;;;;;;;;;;;5064055;28;3186;-56
2023/07/19 12:47:05;;;;;;;;;;;;;;;;;;5057603;28;4808;-56
2023/07/19 12:49:30;;;;;;;;;;;;;;;;;;5063567;28;4976;-58
2023/07/19 12:51:55;;;;;;;;;;;;;;;;;;5060503;28;4506;-53
2023/07/19 12:54:21;;;;;;;;;;;;;;;;;;5060191;28;4643;-55
2023/07/19 12:56:46;;;;;;;;;;;;;;;;;;5061018;28;3512;-54
2023/07/19 12:59:12;;;;;;;;;;;;;;;;;;5062471;28;5000;-51
2023/07/19 13:01:37;;;;;;;;;;;;;;;;;;5060848;28;5144;-58
2023/07/19 13:04:03;;;;;;;;;;;;;;;;;;5062362;28;5096;-57
2023/07/19 13:06:28;;;;;;;;;;;;;;;;;;5061737;28;5299;-57
2023/07/19 13:08:53;;;;;;;;;;;;;;;;;;5062058;28;5003;-57
2023/07/19 13:11:19;;;;;;;;;;;;;;;;;;5069179;28;1301;-58
2023/07/19 13:13:44;;;;;;;;;;;;;;;;;;5072527;28;4937;-57
2023/07/19 13:16:09;;;;;;;;;;;;;;;;;;5061763;28;5076;-57
2023/07/19 13:18:35;;;;;;;;;;;;;;;;;;5067430;28;5122;-57
2023/07/19 13:21:00;;;;;;;;;;;;;;;;;;5068787;28;5039;-57
2023/07/19 13:23:25;;;;;;;;;;;;;;;;;;5062441;28;1193;-56
2023/07/19 13:25:51;;;;;;;;;;;;;;;;;;5062808;28;5049;-56
2023/07/19 13:28:16;;;;;;;;;;;;;;;;;;5061597;28;4978;-55
2023/07/19 13:30:41;;;;;;;;;;;;;;;;;;5067428;28;5136;-55
2023/07/19 13:33:07;;;;;;;;;;;;;;;;;;5063635;28;5120;-52
2023/07/19 13:35:32;;;;;;;;;;;;;;;;;;5053083;28;3359;-53
2023/07/19 13:37:58;;;;;;;;;;;;;;;;;;5061067;28;5108;-54
2023/07/19 13:40:23;;;;;;;;;;;;;;;;;;5063385;28;4588;-54
2023/07/19 13:42:48;;;;;;;;;;;;;;;;;;5061033;28;5043;-53
2023/07/19 13:45:14;;;;;;;;;;;;;;;;;;5063045;28;5113;-54
2023/07/19 13:47:39;;;;;;;;;;;;;;;;;;5063540;28;3580;-55
2023/07/19 13:50:04;;;;;;;;;;;;;;;;;;5061092;28;5062;-57
2023/07/19 13:52:30;;;;;;;;;;;;;;;;;;5061558;28;4836;-56
2023/07/19 13:54:55;;;;;;;;;;;;;;;;;;5060368;28;5135;-56
2023/07/19 13:57:20;;;;;;;;;;;;;;;;;;5058382;28;4894;-57
2023/07/19 13:59:45;;;;;;;;;;;;;;;;;;5062716;28;3273;-56
2023/07/19 14:02:11;;;;;;;;;;;;;;;;;;5062679;28;4344;-57
2023/07/19 14:04:36;;;;;;;;;;;;;;;;;;5061375;28;4922;-56
2023/07/19 14:07:01;;;;;;;;;;;;;;;;;;5066163;28;4946;-56
2023/07/19 14:09:26;;;;;;;;;;;;;;;;;;5062298;28;4865;-56
2023/07/19 14:11:52;;;;;;;;;;;;;;;;;;5065782;28;4996;-56
2023/07/19 14:14:17;;;;;;;;;;;;;;;;;;5063579;28;3352;-57
2023/07/19 14:16:42;;;;;;;;;;;;;;;;;;5065117;28;5023;-58
2023/07/19 14:19:08;;;;;;;;;;;;;;;;;;5062030;28;5057;-57
2023/07/19 14:21:33;;;;;;;;;;;;;;;;;;5062897;28;4682;-58
2023/07/19 14:23:59;;;;;;;;;;;;;;;;;;5060158;28;4627;-57
2023/07/19 14:26:24;;;;;;;;;;;;;;;;;;5058120;28;3230;-58
2023/07/19 14:28:49;;;;;;;;;;;;;;;;;;5061188;28;5465;-56
2023/07/19 14:31:15;;;;;;;;;;;;;;;;;;5062617;28;5059;-54
2023/07/19 14:33:40;;;;;;;;;;;;;;;;;;5065103;28;5116;-54
2023/07/19 14:36:06;;;;;;;;;;;;;;;;;;5061974;28;5102;-56
2023/07/19 14:38:31;;;;;;;;;;;;;;;;;;5067314;28;3316;-56
2023/07/19 14:40:56;;;;;;;;;;;;;;;;;;5061756;28;5525;-55
2023/07/19 14:43:23;;;;;;;;;;;;;;;;;;5068415;28;4832;-55
2023/07/19 14:45:48;;;;;;;;;;;;;;;;;;5066914;28;4462;-56
2023/07/19 14:48:13;;;;;;;;;;;;;;;;;;5064282;28;5048;-56
2023/07/19 14:50:38;;;;;;;;;;;;;;;;;;5068172;28;3248;-56
2023/07/19 14:53:04;;;;;;;;;;;;;;;;;;5069445;28;4784;-55
2023/07/19 14:55:29;;;;;;;;;;;;;;;;;;5066601;28;4458;-56
2023/07/19 14:57:55;;;;;;;;;;;;;;;;;;5069394;28;5096;-57
2023/07/19 15:00:20;;;;;;;;;;;;;;;;;;5068267;28;5163;-56
2023/07/19 15:02:45;;;;;;;;;;;;;;;;;;5070046;28;3464;-56
2023/07/19 15:05:10;;;;;;;;;;;;;;;;;;5066772;28;4489;-56
2023/07/19 15:07:36;;;;;;;;;;;;;;;;;;5068917;28;5180;-57
2023/07/19 15:10:02;;;;;;;;;;;;;;;;;;5064804;28;5094;-55
2023/07/19 15:12:27;;;;;;;;;;;;;;;;;;5062344;28;5070;-49
2023/07/19 15:14:52;;;;;;;;;;;;;;;;;;5064371;28;5016;-47
2023/07/19 15:17:18;;;;;;;;;;;;;;;;;;5056568;28;3373;-55
2023/07/19 15:19:43;;;;;;;;;;;;;;;;;;5059646;28;4639;-54
2023/07/19 15:22:08;;;;;;;;;;;;;;;;;;5055584;28;4975;-56
2023/07/19 15:24:33;;;;;;;;;;;;;;;;;;5057442;28;5088;-54
2023/07/19 15:26:59;;;;;;;;;;;;;;;;;;5063534;28;5252;-55
2023/07/19 15:29:24;;;;;;;;;;;;;;;;;;5065962;28;3309;-55
2023/07/19 15:31:50;;;;;;;;;;;;;;;;;;5064697;28;5459;-54
2023/07/19 15:34:15;;;;;;;;;;;;;;;;;;5063950;28;4462;-55
2023/07/19 15:36:40;;;;;;;;;;;;;;;;;;5066866;28;4523;-55
2023/07/19 15:39:06;;;;;;;;;;;;;;;;;;5063075;28;4514;-56
2023/07/19 15:41:32;;;;;;;;;;;;;;;;;;5066250;28;3264;-57
2023/07/19 15:43:57;;;;;;;;;;;;;;;;;;5064553;28;4998;-56
2023/07/19 15:46:23;;;;;;;;;;;;;;;;;;5067825;28;5210;-54
2023/07/19 15:48:48;;;;;;;;;;;;;;;;;;5062806;28;4711;-57
2023/07/19 15:51:13;;;;;;;;;;;;;;;;;;5061554;28;5093;-56
2023/07/19 15:53:38;;;;;;;;;;;;;;;;;;5059928;28;3316;-57
2023/07/19 15:56:07;;;;;;;;;;;;;;;;;;5062073;28;4881;-57
2023/07/19 15:58:32;;;;;;;;;;;;;;;;;;5060517;28;5154;-55
2023/07/19 16:00:57;;;;;;;;;;;;;;;;;;5063905;28;4954;-54
2023/07/19 16:03:23;;;;;;;;;;;;;;;;;;5066077;28;5021;-55
2023/07/19 16:05:48;;;;;;;;;;;;;;;;;;5065364;28;1112;-56
2023/07/19 16:08:13;;;;;;;;;;;;;;;;;;5067329;28;4532;-56
2023/07/19 16:10:39;;;;;;;;;;;;;;;;;;5067052;28;5026;-58
2023/07/19 16:13:04;;;;;;;;;;;;;;;;;;5065346;28;5127;-55
2023/07/19 16:15:29;;;;;;;;;;;;;;;;;;5059717;28;4853;-57
2023/07/19 16:17:54;;;;;;;;;;;;;;;;;;5064357;28;5175;-54
2023/07/19 16:20:19;;;;;;;;;;;;;;;;;;5057120;28;3439;-55
2023/07/19 16:22:46;;;;;;;;;;;;;;;;;;5066967;28;4938;-56
2023/07/19 16:25:11;;;;;;;;;;;;;;;;;;5056593;28;5116;-55
2023/07/19 16:27:37;;;;;;;;;;;;;;;;;;5060730;28;4882;-56
2023/07/19 16:30:02;;;;;;;;;;;;;;;;;;5065193;28;5014;-52
2023/07/19 16:32:27;;;;;;;;;;;;;;;;;;5067112;28;5092;-56
2023/07/19 16:34:52;;;;;;;;;;;;;;;;;;5060167;28;4978;-55
2023/07/19 16:37:18;;;;;;;;;;;;;;;;;;5063325;28;5078;-52
2023/07/19 16:39:43;;;;;;;;;;;;;;;;;;5059594;28;4968;-54
2023/07/19 16:42:08;;;;;;;;;;;;;;;;;;5066821;28;4974;-55
2023/07/19 16:44:33;;;;;;;;;;;;;;;;;;5064733;28;1135;-54
2023/07/19 16:46:59;;;;;;;;;;;;;;;;;;5063908;28;4942;-54
2023/07/19 16:49:24;;;;;;;;;;;;;;;;;;5060408;28;5017;-56
2023/07/19 16:51:49;;;;;;;;;;;;;;;;;;5067228;28;5293;-54
2023/07/19 16:54:14;;;;;;;;;;;;;;;;;;5062920;28;4630;-55
2023/07/19 16:56:40;;;;;;;;;;;;;;;;;;5064107;28;1586;-55
2023/07/19 16:59:05;;;;;;;;;;;;;;;;;;5064201;28;5072;-54
2023/07/19 17:01:30;;;;;;;;;;;;;;;;;;5066185;28;5197;-54
2023/07/19 17:03:55;;;;;;;;;;;;;;;;;;5060648;28;5025;-53
2023/07/19 17:06:21;;;;;;;;;;;;;;;;;;5073168;28;4690;-54
2023/07/19 17:08:46;;;;;;;;;;;;;;;;;;5067031;28;1294;-57
2023/07/19 17:11:13;;;;;;;;;;;;;;;;;;5065987;28;4434;-57
2023/07/19 17:13:39;;;;;;;;;;;;;;;;;;5062774;28;4950;-54